Time;durP1;ratioP1;P1;durP2;ratioP2;P2;SDS_P1;SDS_P2;PMS_P1;PMS_P2;Temp;Humidity;BMP_temperature;BMP_pressure;BME280_temperature;BME280_humidity;BME280_pressure;Samples;Min_cycle;Max_cycle;Signal;HPM_P1;HPM_P2
2022/10/12 00:01:02;;;;;;;21.05;11.82;;;;;;;17.24;57.44;99396.00;4503056;31;20339;-79
2022/10/12 00:03:27;;;;;;;20.75;12.40;;;;;;;17.23;57.53;99394.31;4488939;31;20156;-80
2022/10/12 00:06:04;;;;;;;19.85;12.13;;;;;;;17.17;57.82;99388.59;4503184;31;20440;-80
2022/10/12 00:08:30;;;;;;;21.15;11.40;;;;;;;17.29;57.56;99399.19;4488866;31;20084;-80
2022/10/12 00:10:56;;;;;;;20.23;10.95;;;;;;;17.29;57.64;99398.37;4488795;31;20106;-80
2022/10/12 00:13:21;;;;;;;21.15;11.50;;;;;;;17.31;57.67;99396.44;4503159;31;20083;-80
2022/10/12 00:15:46;;;;;;;20.80;11.45;;;;;;;17.33;57.73;99393.66;4503164;31;20110;-80
2022/10/12 00:18:12;;;;;;;20.80;11.82;;;;;;;17.35;57.67;99392.59;4503233;31;20140;-80
2022/10/12 00:20:37;;;;;;;18.48;10.77;;;;;;;17.36;57.69;99390.75;4503032;31;20075;-80
2022/10/12 00:23:03;;;;;;;20.35;10.68;;;;;;;17.39;57.71;99391.41;4503031;31;20077;-80
2022/10/12 00:25:28;;;;;;;21.50;11.85;;;;;;;17.42;57.69;99392.97;4488942;31;20119;-80
2022/10/12 00:27:56;;;;;;;19.02;10.77;;;;;;;17.46;57.64;99394.44;4503256;31;20137;-81
2022/10/12 00:30:21;;;;;;;18.85;11.27;;;;;;;17.48;57.61;99389.84;4502938;31;20099;-80
2022/10/12 00:32:47;;;;;;;18.40;10.93;;;;;;;17.53;57.53;99392.19;4503243;31;20431;-79
2022/10/12 00:35:12;;;;;;;21.85;11.63;;;;;;;17.53;57.51;99397.53;4503245;31;20135;-80
2022/10/12 00:37:38;;;;;;;23.25;11.40;;;;;;;17.57;57.46;99396.31;4503234;31;20080;-80
2022/10/12 00:40:03;;;;;;;19.17;10.95;;;;;;;17.57;57.47;99397.16;4488629;31;20077;-79
2022/10/12 00:42:29;;;;;;;19.90;11.02;;;;;;;17.58;57.45;99403.38;4503102;31;20092;-80
2022/10/12 00:44:54;;;;;;;22.58;11.48;;;;;;;17.60;57.42;99401.44;4503070;31;20104;-80
2022/10/12 00:47:23;;;;;;;23.67;11.60;;;;;;;17.66;57.29;99396.50;4488765;31;20110;-80
2022/10/12 00:49:55;;;;;;;20.00;11.27;;;;;;;17.66;57.33;99395.66;4502873;31;20140;-80
2022/10/12 00:52:24;;;;;;;17.98;10.68;;;;;;;17.66;57.34;99390.31;4502915;31;20095;-80
2022/10/12 00:54:51;;;;;;;20.62;11.27;;;;;;;17.66;57.30;99396.50;4488374;31;20486;-80
2022/10/12 00:57:17;;;;;;;19.80;11.60;;;;;;;17.71;57.24;99395.31;4502758;31;20167;-80
2022/10/12 00:59:46;;;;;;;19.98;10.38;;;;;;;17.67;57.32;99395.53;4488307;31;20065;-80
2022/10/12 01:02:12;;;;;;;20.10;11.88;;;;;;;17.63;57.45;99396.72;4502764;31;20131;-80
2022/10/12 01:04:38;;;;;;;19.60;11.27;;;;;;;17.60;57.27;99401.44;4502555;31;20110;-80
2022/10/12 01:07:03;;;;;;;20.70;11.73;;;;;;;17.46;57.17;99405.97;4487848;31;20091;-80
2022/10/12 01:09:29;;;;;;;20.37;11.40;;;;;;;17.40;57.17;99406.44;4502711;31;20107;-80
2022/10/12 01:11:56;;;;;;;18.67;10.95;;;;;;;17.40;57.22;99411.75;4502688;31;20119;-81
2022/10/12 01:14:21;;;;;;;19.75;11.60;;;;;;;17.36;57.39;99409.41;4502748;31;20245;-80
2022/10/12 01:16:53;;;;;;;22.25;11.52;;;;;;;17.25;57.82;99407.53;4488245;31;20128;-80
2022/10/12 01:19:43;;;;;;;20.33;12.35;;;;;;;17.23;58.00;99409.44;4488574;31;20443;-81
2022/10/12 01:22:16;;;;;;;24.20;12.05;;;;;;;17.24;57.98;99411.16;4502583;31;20428;-81
2022/10/12 01:24:51;;;;;;;19.60;11.73;;;;;;;17.21;58.00;99406.03;4488355;31;20096;-81
2022/10/12 01:27:29;;;;;;;19.65;11.27;;;;;;;17.21;57.97;99412.22;4502521;31;20079;-80
2022/10/12 01:30:07;;;;;;;19.20;11.52;;;;;;;17.26;57.86;99415.38;4488455;31;20102;-80
2022/10/12 01:32:51;;;;;;;20.00;11.15;;;;;;;17.33;57.71;99423.81;4488209;31;20092;-80
2022/10/12 01:35:28;;;;;;;19.40;11.02;;;;;;;17.25;57.80;99418.19;4502404;31;20139;-80
2022/10/12 01:38:18;;;;;;;19.70;10.55;;;;;;;17.23;57.79;99417.41;4475035;31;20109;-80
2022/10/12 01:40:50;;;;;;;19.05;11.02;;;;;;;17.24;57.76;99421.78;4424598;32;20104;-80
2022/10/12 01:43:22;;;;;;;22.48;10.57;;;;;;;17.23;57.71;99415.63;4424738;32;20566;-80
2022/10/12 01:45:48;;;;;;;19.67;10.65;;;;;;;17.29;57.53;99417.84;4424601;32;20585;-80
2022/10/12 01:48:14;;;;;;;21.62;12.50;;;;;;;17.24;57.67;99424.47;4424750;32;20557;-81
2022/10/12 01:50:50;;;;;;;21.27;12.52;;;;;;;17.22;57.71;99421.91;4424575;32;20110;-81
2022/10/12 01:53:30;;;;;;;21.98;11.82;;;;;;;17.23;57.76;99420.09;4424669;32;20101;-81
2022/10/12 01:56:06;;;;;;;21.12;12.00;;;;;;;17.30;57.44;99424.84;4437580;32;20093;-81
2022/10/12 01:58:35;;;;;;;21.75;12.55;;;;;;;17.24;57.67;99419.97;4437529;32;20605;-81
2022/10/12 02:01:18;;;;;;;21.73;12.60;;;;;;;17.20;57.79;99425.66;4437310;32;20567;-81
2022/10/12 02:03:49;;;;;;;26.00;13.23;;;;;;;17.34;57.35;99425.50;4424513;32;20206;-81
2022/10/12 02:06:22;;;;;;;23.92;12.93;;;;;;;17.30;57.39;99424.00;4437389;32;20202;-81
2022/10/12 02:08:53;;;;;;;25.45;12.88;;;;;;;17.24;57.62;99430.63;4424485;32;20151;-81
2022/10/12 02:11:20;;;;;;;22.95;13.25;;;;;;;17.32;57.38;99424.75;4437236;32;20158;-81
2022/10/12 02:14:00;;;;;;;22.30;13.18;;;;;;;17.27;57.43;99421.59;4424451;32;20113;-80
2022/10/12 02:16:33;;;;;;;23.00;13.35;;;;;;;17.34;57.36;99421.97;4424768;32;20122;-81
2022/10/12 02:18:59;;;;;;;21.80;13.00;;;;;;;17.29;57.41;99422.31;4487344;31;20347;-80
2022/10/12 02:21:29;;;;;;;24.30;13.80;;;;;;;17.33;57.24;99420.28;4489522;31;20442;-80
2022/10/12 02:23:57;;;;;;;22.70;12.68;;;;;;;17.30;57.23;99414.19;4489663;31;20092;-80
2022/10/12 02:26:22;;;;;;;25.05;13.50;;;;;;;17.29;57.33;99423.16;4489881;31;20470;-80
2022/10/12 02:28:49;;;;;;;24.83;13.60;;;;;;;17.25;57.31;99416.38;4489854;31;20073;-80
2022/10/12 02:31:20;;;;;;;23.73;15.30;;;;;;;17.25;57.25;99421.69;4489502;31;20432;-80
2022/10/12 02:34:07;;;;;;;22.67;13.35;;;;;;;17.15;57.44;99414.47;4503980;31;20088;-80
2022/10/12 02:36:45;;;;;;;22.20;13.23;;;;;;;17.15;57.36;99422.44;4503928;31;20111;-80
2022/10/12 02:39:13;;;;;;;24.80;13.05;;;;;;;17.12;57.31;99420.03;4489270;31;20170;-80
2022/10/12 02:41:43;;;;;;;26.10;13.57;;;;;;;17.09;57.31;99413.09;4489519;31;20122;-80
2022/10/12 02:44:11;;;;;;;24.65;13.43;;;;;;;17.08;57.22;99414.06;4489397;31;20356;-80
2022/10/12 02:46:38;;;;;;;23.40;12.95;;;;;;;17.06;57.13;99418.66;4489427;31;20088;-80
2022/10/12 02:49:04;;;;;;;22.83;12.80;;;;;;;17.04;57.09;99420.56;4489350;31;20084;-79
2022/10/12 02:51:31;;;;;;;26.73;13.82;;;;;;;17.00;57.12;99422.59;4476201;31;20147;-80
2022/10/12 02:53:56;;;;;;;23.93;13.40;;;;;;;17.01;57.08;99423.44;4489403;31;20107;-80
2022/10/12 02:56:22;;;;;;;25.08;13.60;;;;;;;17.00;57.10;99429.75;4476102;31;20197;-80
2022/10/12 02:58:48;;;;;;;24.12;13.10;;;;;;;16.97;57.24;99429.94;4489521;31;20106;-81
2022/10/12 03:01:15;;;;;;;23.27;13.68;;;;;;;16.99;57.24;99428.87;4489613;31;20405;-80
2022/10/12 03:03:41;;;;;;;25.70;13.77;;;;;;;17.02;57.20;99431.31;4503833;31;20092;-80
2022/10/12 03:06:07;;;;;;;22.33;13.07;;;;;;;17.05;57.10;99428.44;4489534;31;20224;-81
2022/10/12 03:08:32;;;;;;;24.63;13.27;;;;;;;17.09;57.04;99426.41;4489524;31;20143;-80
2022/10/12 03:11:02;;;;;;;27.62;13.60;;;;;;;17.08;57.16;99433.53;4503599;31;20419;-81
2022/10/12 03:13:28;;;;;;;23.30;13.00;;;;;;;17.12;57.12;99425.34;4503892;31;20111;-81
2022/10/12 03:15:53;;;;;;;23.67;12.63;;;;;;;17.18;56.93;99420.44;4489520;31;20092;-80
2022/10/12 03:18:18;;;;;;;21.95;12.82;;;;;;;17.27;56.72;99425.09;4489401;31;20134;-80
2022/10/12 03:20:47;;;;;;;25.52;13.70;;;;;;;17.15;57.15;99431.28;4503651;31;20368;-81
2022/10/12 03:23:13;;;;;;;22.83;13.38;;;;;;;16.89;57.80;99430.50;4489444;31;20127;-80
2022/10/12 03:25:38;;;;;;;24.02;13.85;;;;;;;17.11;57.22;99429.81;4503832;31;20084;-80
2022/10/12 03:28:04;;;;;;;23.58;12.70;;;;;;;17.20;57.00;99425.66;4503262;31;20088;-80
2022/10/12 03:30:29;;;;;;;24.27;12.30;;;;;;;17.28;56.84;99428.59;4503671;31;20080;-79
2022/10/12 03:32:54;;;;;;;22.52;12.82;;;;;;;17.31;56.78;99425.72;4503663;31;20088;-79
2022/10/12 03:35:20;;;;;;;23.80;13.23;;;;;;;17.33;56.66;99425.62;4503311;31;20088;-81
2022/10/12 03:37:45;;;;;;;23.65;12.80;;;;;;;17.36;56.54;99431.56;4503319;31;20445;-80
2022/10/12 03:40:11;;;;;;;24.27;12.80;;;;;;;17.40;56.35;99434.84;4503209;31;20072;-79
2022/10/12 03:42:36;;;;;;;24.42;13.70;;;;;;;17.39;56.28;99428.69;4503303;31;20144;-78
2022/10/12 03:45:02;;;;;;;22.73;13.10;;;;;;;17.43;56.15;99426.66;4475680;31;20138;-78
2022/10/12 03:47:28;;;;;;;20.55;12.52;;;;;;;17.45;55.98;99428.22;4488980;31;20080;-78
2022/10/12 03:49:53;;;;;;;23.40;13.13;;;;;;;17.49;55.75;99427.03;4489030;31;20076;-78
2022/10/12 03:52:18;;;;;;;26.85;14.40;;;;;;;17.52;55.52;99423.31;4503452;31;20132;-79
2022/10/12 03:54:44;;;;;;;25.48;14.20;;;;;;;17.53;55.44;99425.00;4503195;31;20084;-78
2022/10/12 03:57:09;;;;;;;24.80;13.13;;;;;;;17.53;55.31;99427.66;4503530;31;20127;-78
2022/10/12 03:59:34;;;;;;;22.98;13.60;;;;;;;17.57;55.13;99428.31;4489184;31;20118;-79
2022/10/12 04:02:00;;;;;;;24.55;13.75;;;;;;;17.46;55.31;99424.63;4503456;31;20116;-79
2022/10/12 04:04:25;;;;;;;23.90;13.88;;;;;;;17.42;55.35;99425.81;4503450;31;20100;-79
2022/10/12 04:06:51;;;;;;;23.45;13.15;;;;;;;17.42;55.28;99420.47;4503476;31;20084;-78
2022/10/12 04:09:16;;;;;;;26.62;13.60;;;;;;;17.42;55.26;99425.81;4503265;31;20076;-78
2022/10/12 04:11:41;;;;;;;24.10;13.15;;;;;;;17.37;55.41;99421.78;4503373;31;20351;-78
2022/10/12 04:14:07;;;;;;;28.15;13.15;;;;;;;17.33;55.47;99426.47;4488966;31;20433;-79
2022/10/12 04:16:32;;;;;;;25.48;12.93;;;;;;;17.33;55.48;99423.81;4503476;31;20373;-79
2022/10/12 04:18:58;;;;;;;24.27;13.60;;;;;;;17.29;55.48;99422.31;4503394;31;20084;-79
2022/10/12 04:21:24;;;;;;;24.05;13.13;;;;;;;17.23;55.55;99418.28;4503185;31;20162;-80
2022/10/12 04:23:50;;;;;;;23.12;12.90;;;;;;;17.23;55.51;99422.75;4503367;31;20092;-80
2022/10/12 04:26:16;;;;;;;24.87;13.57;;;;;;;17.16;55.58;99419.69;4503338;31;20079;-79
2022/10/12 04:28:41;;;;;;;23.15;13.10;;;;;;;17.08;55.73;99433.53;4503185;31;20072;-82
2022/10/12 04:31:07;;;;;;;25.25;13.75;;;;;;;17.08;55.67;99432.69;4503272;31;20115;-82
2022/10/12 04:33:32;;;;;;;25.75;14.50;;;;;;;17.07;55.59;99428.31;4503268;31;20107;-81
2022/10/12 04:35:58;;;;;;;27.30;13.50;;;;;;;16.97;55.87;99429.94;4503035;31;20118;-80
2022/10/12 04:38:23;;;;;;;23.85;12.80;;;;;;;16.88;56.21;99431.44;4488883;31;20128;-81
2022/10/12 04:40:49;;;;;;;25.90;14.50;;;;;;;16.88;56.28;99424.31;4501848;31;20101;-81
2022/10/12 04:43:15;;;;;;;22.30;13.05;;;;;;;16.83;56.40;99430.94;4480781;32;20104;-79
2022/10/12 04:45:40;;;;;;;27.87;15.15;;;;;;;16.82;56.48;99429.22;4472870;31;20494;-81
2022/10/12 04:48:06;;;;;;;24.95;14.45;;;;;;;16.71;56.75;99432.59;4488493;31;20147;-81
2022/10/12 04:50:31;;;;;;;24.17;14.13;;;;;;;16.65;56.87;99428.56;4497396;31;20096;-81
2022/10/12 04:52:57;;;;;;;25.70;13.70;;;;;;;16.67;56.74;99426.66;4488402;31;20398;-82
2022/10/12 04:55:22;;;;;;;26.27;13.55;;;;;;;16.55;56.90;99427.47;4502806;31;20106;-81
2022/10/12 04:57:48;;;;;;;27.05;13.52;;;;;;;16.56;56.90;99428.34;4502871;31;20122;-82
2022/10/12 05:00:14;;;;;;;25.80;13.80;;;;;;;16.54;56.84;99431.09;4502597;31;20511;-81
2022/10/12 05:02:40;;;;;;;23.25;13.68;;;;;;;16.52;56.82;99438.34;4502914;31;20169;-81
2022/10/12 05:05:05;;;;;;;23.65;13.48;;;;;;;16.56;56.61;99436.31;4502722;31;20087;-82
2022/10/12 05:07:31;;;;;;;25.75;13.20;;;;;;;16.55;56.45;99434.59;4502511;31;20118;-82
2022/10/12 05:09:56;;;;;;;25.95;12.30;;;;;;;16.58;56.29;99445.06;4502657;31;20132;-82
2022/10/12 05:12:21;;;;;;;22.20;12.57;;;;;;;16.58;56.25;99448.56;4502070;31;20080;-82
2022/10/12 05:14:47;;;;;;;26.75;13.85;;;;;;;16.49;56.37;99441.19;4502610;31;20104;-82
2022/10/12 05:17:12;;;;;;;23.67;13.10;;;;;;;16.54;56.20;99448.88;4502530;31;20112;-82
2022/10/12 05:19:38;;;;;;;21.45;12.23;;;;;;;16.54;56.28;99451.53;4502462;31;20148;-81
2022/10/12 05:22:03;;;;;;;23.00;12.55;;;;;;;16.58;56.14;99448.56;4502646;31;20104;-81
2022/10/12 05:24:28;;;;;;;22.85;12.25;;;;;;;16.65;55.99;99446.31;4502425;31;20114;-81
2022/10/12 05:26:55;;;;;;;22.00;12.48;;;;;;;16.71;55.83;99451.22;4502480;31;20110;-82
2022/10/12 05:29:20;;;;;;;21.40;11.45;;;;;;;16.72;55.75;99444.94;4488352;31;20533;-82
2022/10/12 05:31:46;;;;;;;25.48;12.23;;;;;;;16.55;56.28;99450.56;4502377;31;20119;-81
2022/10/12 05:34:11;;;;;;;21.60;11.20;;;;;;;16.80;55.67;99453.22;4502506;31;20151;-81
2022/10/12 05:36:36;;;;;;;21.83;11.70;;;;;;;16.97;55.03;99444.09;4502423;31;20110;-81
2022/10/12 05:39:02;;;;;;;22.02;11.27;;;;;;;17.00;54.83;99443.06;4502283;31;20123;-80
2022/10/12 05:41:28;;;;;;;23.27;11.73;;;;;;;17.17;54.39;99447.16;4488037;31;20122;-81
2022/10/12 05:43:53;;;;;;;23.12;12.00;;;;;;;17.27;54.28;99450.88;4502333;31;20103;-81
2022/10/12 05:46:18;;;;;;;22.40;13.02;;;;;;;17.03;55.53;99451.66;4502359;31;20080;-84
2022/10/12 05:48:44;;;;;;;20.48;11.12;;;;;;;17.32;54.79;99455.88;4487940;31;20424;-83
2022/10/12 05:51:09;;;;;;;20.40;11.45;;;;;;;17.53;53.93;99456.12;4501681;31;20115;-83
2022/10/12 05:53:34;;;;;;;22.45;11.60;;;;;;;17.57;53.63;99460.28;4487890;31;20118;-84
2022/10/12 05:56:01;;;;;;;20.92;11.70;;;;;;;17.68;53.42;99465.66;4502148;31;20146;-84
2022/10/12 05:58:27;;;;;;;23.00;11.32;;;;;;;17.77;52.96;99459.66;4487907;31;20104;-87
2022/10/12 06:00:53;;;;;;;21.90;12.40;;;;;;;17.73;52.99;99460.87;4502199;31;20083;-87
2022/10/12 06:03:19;;;;;;;21.50;11.68;;;;;;;17.83;52.80;99464.53;4487952;31;20337;-88
2022/10/12 06:05:45;;;;;;;23.40;12.48;;;;;;;17.90;53.02;99464.12;4501361;31;20087;-81
2022/10/12 06:08:11;;;;;;;22.08;11.18;;;;;;;17.94;52.94;99462.91;4487710;31;20119;-81
2022/10/12 06:10:42;;;;;;;19.80;11.10;;;;;;;18.08;52.46;99471.59;4465125;31;20560;-82
2022/10/12 06:13:07;;;;;;;24.52;11.95;;;;;;;18.16;51.97;99470.19;4480331;31;20420;-82
2022/10/12 06:15:34;;;;;;;25.40;12.27;;;;;;;18.29;51.56;99473.59;4493037;31;20103;-79
2022/10/12 06:18:00;;;;;;;28.45;11.63;;;;;;;18.40;51.42;99472.78;4494909;31;20435;-87
2022/10/12 06:20:25;;;;;;;23.35;11.07;;;;;;;18.39;52.09;99473.78;4496017;31;20115;-86
2022/10/12 06:22:50;;;;;;;18.70;11.90;;;;;;;18.61;52.18;99468.47;4495188;31;20144;-85
2022/10/12 06:25:16;;;;;;;23.02;12.10;;;;;;;18.79;51.69;99468.03;4491036;31;20143;-85
2022/10/12 06:27:43;;;;;;;22.80;11.55;;;;;;;18.84;51.59;99476.56;4493674;31;20096;-84
2022/10/12 06:30:10;;;;;;;21.92;11.90;;;;;;;19.03;50.70;99475.97;4490580;31;20114;-87
2022/10/12 06:32:35;;;;;;;23.02;11.80;;;;;;;19.09;49.87;99472.81;4501721;31;20110;-84
2022/10/12 06:35:00;;;;;;;22.30;11.85;;;;;;;19.15;49.58;99468.81;4491425;31;20084;-83
2022/10/12 06:37:28;;;;;;;22.37;12.15;;;;;;;19.30;48.99;99469.44;4498085;31;20375;-82
2022/10/12 06:39:54;;;;;;;22.62;11.27;;;;;;;19.36;48.59;99474.28;4487838;31;20457;-84
2022/10/12 06:42:19;;;;;;;20.95;12.00;;;;;;;19.30;48.90;99472.09;4485580;31;20084;-82
2022/10/12 06:44:45;;;;;;;21.62;11.18;;;;;;;19.47;48.83;99476.06;4490777;31;20463;-83
2022/10/12 06:47:10;;;;;;;21.40;11.05;;;;;;;19.71;48.40;99479.44;4493109;31;20096;-84
2022/10/12 06:49:36;;;;;;;20.35;11.63;;;;;;;19.48;49.00;99475.94;4497355;31;20088;-83
2022/10/12 06:52:01;;;;;;;20.30;12.23;;;;;;;19.42;49.09;99487.97;4501330;31;20466;-83
2022/10/12 06:54:26;;;;;;;23.58;11.98;;;;;;;19.81;47.47;99482.22;4501169;31;20132;-83
2022/10/12 06:56:53;;;;;;;24.58;12.52;;;;;;;20.02;47.21;99483.13;4486547;31;20387;-84
2022/10/12 06:59:19;;;;;;;21.87;12.50;;;;;;;20.07;46.96;99481.91;4485432;31;20509;-83
2022/10/12 07:01:44;;;;;;;21.67;12.73;;;;;;;20.13;46.46;99486.75;4484500;31;20114;-77
2022/10/12 07:04:10;;;;;;;22.45;12.75;;;;;;;20.18;46.60;99485.38;4486234;31;20128;-82
2022/10/12 07:06:35;;;;;;;23.95;12.55;;;;;;;20.22;46.13;99486.84;4485485;32;20097;-82
2022/10/12 07:09:00;;;;;;;22.37;12.45;;;;;;;20.28;46.01;99489.97;4485643;32;20132;-82
2022/10/12 07:11:26;;;;;;;22.70;12.63;;;;;;;20.23;46.24;99490.34;4487038;32;20072;-82
2022/10/12 07:13:52;;;;;;;25.30;12.55;;;;;;;20.32;46.23;99489.59;4486927;32;20349;-82
2022/10/12 07:16:17;;;;;;;23.27;12.73;;;;;;;20.34;46.08;99486.75;4472501;32;20152;-82
2022/10/12 07:18:42;;;;;;;23.02;13.32;;;;;;;20.31;46.16;99487.88;4486965;32;20436;-82
2022/10/12 07:21:08;;;;;;;25.67;12.68;;;;;;;20.37;45.91;99490.03;4487544;32;20076;-82
2022/10/12 07:23:34;;;;;;;19.65;11.70;;;;;;;20.43;46.15;99491.34;4487610;32;20081;-82
2022/10/12 07:26:00;;;;;;;22.90;12.52;;;;;;;20.48;46.30;99493.66;4460246;32;20108;-82
2022/10/12 07:28:25;;;;;;;21.70;13.32;;;;;;;20.60;46.24;99493.47;4473459;32;20121;-82
2022/10/12 07:30:51;;;;;;;22.27;12.50;;;;;;;20.57;45.66;99485.69;4487661;32;20433;-82
2022/10/12 07:33:17;;;;;;;23.00;12.30;;;;;;;20.52;45.87;99490.56;4487654;32;20088;-82
2022/10/12 07:35:42;;;;;;;26.12;13.05;;;;;;;20.62;45.98;99488.00;4473262;32;20392;-82
2022/10/12 07:38:08;;;;;;;24.15;13.57;;;;;;;20.66;46.11;99485.91;4487507;32;20110;-82
2022/10/12 07:40:33;;;;;;;22.55;13.70;;;;;;;20.66;45.92;99484.06;4487235;32;20110;-82
2022/10/12 07:42:59;;;;;;;23.05;13.18;;;;;;;20.64;45.83;99490.56;4487595;32;20115;-82
2022/10/12 07:45:27;;;;;;;21.62;13.20;;;;;;;20.70;45.65;99487.34;4473363;32;20130;-82
2022/10/12 07:47:54;;;;;;;24.15;13.68;;;;;;;20.66;45.33;99481.41;4473510;32;20100;-82
2022/10/12 07:50:19;;;;;;;20.73;12.63;;;;;;;20.69;45.33;99486.50;4487402;32;20108;-82
2022/10/12 07:52:44;;;;;;;24.25;13.00;;;;;;;20.74;45.55;99480.75;4473230;32;20084;-83
2022/10/12 07:55:10;;;;;;;22.92;12.27;;;;;;;20.71;45.63;99491.75;4487087;32;20183;-82
2022/10/12 07:57:35;;;;;;;26.85;13.55;;;;;;;20.84;45.29;99484.31;4487448;32;20085;-82
2022/10/12 08:00:00;;;;;;;23.77;12.15;;;;;;;20.94;44.85;99487.06;4487304;32;20359;-83
2022/10/12 08:02:26;;;;;;;23.15;12.27;;;;;;;20.98;44.86;99485.81;4473003;32;20076;-82
2022/10/12 08:04:51;;;;;;;21.20;11.95;;;;;;;20.93;44.74;99480.84;4473175;32;20160;-82
2022/10/12 08:07:17;;;;;;;23.10;12.60;;;;;;;21.04;44.67;99482.59;4487474;32;20141;-82
2022/10/12 08:09:42;;;;;;;20.80;11.60;;;;;;;20.54;45.52;99487.78;4487330;32;20093;-83
2022/10/12 08:12:10;;;;;;;19.67;11.32;;;;;;;20.98;44.71;99491.19;4487314;32;20330;-83
2022/10/12 08:14:35;;;;;;;21.37;11.63;;;;;;;21.13;44.19;99489.84;4472968;32;20486;-83
2022/10/12 08:17:00;;;;;;;22.55;11.43;;;;;;;21.31;43.01;99489.22;4473073;32;20112;-82
2022/10/12 08:19:26;;;;;;;22.17;11.10;;;;;;;20.91;43.73;99492.69;4487133;32;20076;-83
2022/10/12 08:21:51;;;;;;;21.65;11.00;;;;;;;21.24;43.34;99496.09;4486987;32;20081;-82
2022/10/12 08:24:17;;;;;;;19.58;11.60;;;;;;;21.26;43.38;99491.44;4487184;32;20084;-83
2022/10/12 08:26:42;;;;;;;19.37;11.48;;;;;;;21.41;43.61;99490.94;4487155;32;20160;-83
2022/10/12 08:29:09;;;;;;;22.25;11.80;;;;;;;21.57;42.93;99486.91;4487148;32;20092;-82
2022/10/12 08:31:34;;;;;;;18.65;11.23;;;;;;;21.67;42.17;99489.63;4473033;32;20088;-82
2022/10/12 08:34:00;;;;;;;20.12;11.82;;;;;;;21.38;43.18;99482.31;4472832;32;20096;-82
2022/10/12 08:36:26;;;;;;;20.95;12.20;;;;;;;21.59;41.51;99485.81;4472834;32;20380;-82
2022/10/12 08:38:53;;;;;;;21.62;11.32;;;;;;;21.74;41.39;99480.88;4487142;32;20088;-82
2022/10/12 08:41:25;;;;;;;;;;;;;;;21.74;41.69;99478.22;4473154;32;20104;-82
2022/10/12 08:44:15;;;;;;;21.58;11.38;;;;;;;21.98;41.44;99479.66;4473041;32;19996;-82
2022/10/12 08:46:41;;;;;;;19.75;11.35;;;;;;;22.01;41.14;99479.38;4487248;32;20152;-82
2022/10/12 08:49:11;;;;;;;21.00;11.38;;;;;;;21.80;41.19;99480.34;4486958;32;20111;-83
2022/10/12 08:51:48;;;;;;;22.05;11.80;;;;;;;22.05;41.22;99482.63;4472915;32;20106;-83
2022/10/12 08:54:16;;;;;;;21.27;11.88;;;;;;;22.06;41.16;99484.31;4473161;32;20497;-82
2022/10/12 08:56:42;;;;;;;21.67;12.18;;;;;;;22.16;41.04;99480.66;4473079;32;20213;-82
2022/10/12 08:59:12;;;;;;;21.62;11.48;;;;;;;22.08;40.03;99485.88;4473016;32;20084;-83
2022/10/12 09:02:05;;;;;;;21.05;11.50;;;;;;;22.10;40.47;99483.91;4473122;32;20107;-83
2022/10/12 09:04:40;;;;;;;19.60;11.07;;;;;;;22.22;40.45;99486.47;4472827;32;20112;-83
2022/10/12 09:07:11;;;;;;;20.17;10.95;;;;;;;22.37;40.37;99485.09;4487030;32;20451;-83
2022/10/12 09:10:14;;;;;;;20.77;11.68;;;;;;;22.42;39.33;99488.16;4472667;32;20084;-83
2022/10/12 09:12:45;;;;;;;20.60;10.63;;;;;;;22.41;39.77;99491.84;4487130;32;20084;-82
2022/10/12 09:15:19;;;;;;;23.42;12.73;;;;;;;22.47;39.40;99485.91;4472972;32;20448;-82
2022/10/12 09:17:55;;;;;;;21.37;12.60;;;;;;;22.31;39.55;99491.88;4472941;32;20777;-82
2022/10/12 09:20:22;;;;;;;26.90;11.48;;;;;;;22.42;39.43;99485.47;4487031;32;20088;-83
2022/10/12 09:22:50;;;;;;;26.08;13.07;;;;;;;22.40;39.67;99490.16;4486870;32;20088;-83
2022/10/12 09:25:18;;;;;;;23.98;12.18;;;;;;;22.44;39.65;99486.19;4486756;32;20088;-83
2022/10/12 09:27:45;;;;;;;24.12;12.52;;;;;;;22.37;40.03;99496.66;4471879;32;20123;-82
2022/10/12 09:30:13;;;;;;;21.67;11.85;;;;;;;22.42;40.30;99495.38;4472546;32;20435;-83
2022/10/12 09:32:58;;;;;;;25.95;12.50;;;;;;;22.35;39.92;99504.00;4486746;32;20146;-82
2022/10/12 09:35:24;;;;;;;24.10;13.23;;;;;;;22.50;39.64;99491.00;4472514;32;20108;-83
2022/10/12 09:37:51;;;;;;;22.77;12.43;;;;;;;22.51;39.90;99489.16;4486692;32;20114;-83
2022/10/12 09:40:29;;;;;;;21.45;12.15;;;;;;;22.45;40.03;99487.88;4472018;32;20171;-82
2022/10/12 09:42:55;;;;;;;;;;;;;;;22.45;39.89;99492.41;4472792;32;20424;-82
2022/10/12 09:45:21;;;;;;;20.35;12.07;;;;;;;22.59;40.06;99491.97;4459332;32;20026;-83
2022/10/12 09:48:19;;;;;;;22.37;12.65;;;;;;;22.58;39.87;99485.75;4472341;32;20092;-83
2022/10/12 09:50:55;;;;;;;22.40;11.27;;;;;;;22.53;39.78;99488.00;4486502;32;20085;-83
2022/10/12 09:53:34;;;;;;;22.87;12.50;;;;;;;22.61;39.87;99494.53;4472404;32;20135;-83
2022/10/12 09:56:12;;;;;;;23.55;12.00;;;;;;;22.55;39.93;99490.56;4472244;32;20456;-83
2022/10/12 09:58:49;;;;;;;21.37;11.55;;;;;;;22.60;39.73;99487.44;4472092;32;20145;-82
2022/10/12 10:01:17;;;;;;;19.83;11.25;;;;;;;22.67;39.97;99486.72;4472151;32;20111;-82
2022/10/12 10:03:47;;;;;;;21.37;11.23;;;;;;;22.68;39.52;99492.97;4486204;32;20081;-83
2022/10/12 10:06:14;;;;;;;22.35;11.15;;;;;;;22.69;39.75;99489.25;4472135;32;20135;-82
2022/10/12 10:08:43;;;;;;;21.55;11.43;;;;;;;22.38;40.33;99498.34;4486221;32;20088;-83
2022/10/12 10:11:21;;;;;;;23.50;12.93;;;;;;;22.61;40.04;99492.66;4471906;32;20100;-83
2022/10/12 10:13:52;;;;;;;22.30;13.13;;;;;;;22.63;39.95;99488.00;4471965;32;20103;-82
2022/10/12 10:16:20;;;;;;;20.08;11.30;;;;;;;22.03;40.99;99504.22;4471888;32;20123;-82
2022/10/12 10:18:49;;;;;;;24.30;12.30;;;;;;;22.46;40.30;99496.78;4472093;32;20097;-83
2022/10/12 10:21:26;;;;;;;21.35;12.37;;;;;;;22.55;40.17;99496.78;4472001;32;20114;-83
2022/10/12 10:23:57;;;;;;;20.40;12.25;;;;;;;22.68;40.16;99495.66;4486306;32;20109;-83
2022/10/12 10:26:23;;;;;;;19.10;10.85;;;;;;;22.85;39.87;99489.53;4472212;32;20168;-82
2022/10/12 10:28:55;;;;;;;20.90;10.80;;;;;;;22.89;39.31;99496.31;4472089;32;20112;-83
2022/10/12 10:31:26;;;;;;;20.05;10.63;;;;;;;22.98;38.82;99491.88;4486267;32;20665;-84
2022/10/12 10:34:06;;;;;;;17.40;10.85;;;;;;;22.96;38.84;99494.69;4486148;32;20502;-83
2022/10/12 10:36:34;;;;;;;23.42;11.35;;;;;;;23.04;38.52;99485.94;4485927;32;20436;-83
2022/10/12 10:39:06;;;;;;;;;;;;;;;23.03;38.88;99489.63;4487021;32;20524;-83
2022/10/12 10:41:37;;;;;;;20.37;11.52;;;;;;;23.10;38.68;99493.44;4473877;32;20009;-83
2022/10/12 10:44:03;;;;;;;20.25;10.50;;;;;;;23.06;38.14;99486.62;4473637;32;20151;-83
2022/10/12 10:46:30;;;;;;;21.45;11.00;;;;;;;23.07;39.03;99493.72;4460583;32;20156;-83
2022/10/12 10:49:05;;;;;;;;;;;;;;;23.21;38.70;99484.34;4474150;32;20178;-83
2022/10/12 10:51:41;;;;;;;19.00;10.57;;;;;;;23.27;38.86;99485.59;4488033;32;20447;-83
2022/10/12 10:54:25;;;;;;;18.08;10.23;;;;;;;23.28;38.82;99485.44;4473610;32;20107;-83
2022/10/12 10:56:59;;;;;;;23.35;10.68;;;;;;;23.16;38.70;99483.94;4488021;32;20089;-83
2022/10/12 10:59:41;;;;;;;19.15;10.32;;;;;;;23.15;39.22;99483.09;4474037;32;20100;-83
2022/10/12 11:02:15;;;;;;;20.98;10.68;;;;;;;23.08;39.00;99482.00;4487808;32;20083;-83
2022/10/12 11:04:43;;;;;;;18.58;10.50;;;;;;;23.02;39.19;99479.84;4487877;32;20095;-83
2022/10/12 11:07:25;;;;;;;20.33;10.68;;;;;;;23.14;39.31;99478.72;4473964;32;20096;-83
2022/10/12 11:09:53;;;;;;;19.20;10.55;;;;;;;23.16;38.99;99482.09;4488155;32;20159;-83
2022/10/12 11:12:42;;;;;;;18.05;10.35;;;;;;;23.21;38.80;99480.81;4473837;32;20190;-83
2022/10/12 11:15:19;;;;;;;;;;;;;;;22.97;39.24;99482.97;4461001;32;20100;-83
2022/10/12 11:17:49;;;;;;;17.55;10.07;;;;;;;23.09;38.83;99478.31;4473906;32;19991;-83
2022/10/12 11:20:28;;;;;;;20.25;9.73;;;;;;;23.03;39.21;99476.22;4473646;32;20123;-83
2022/10/12 11:22:54;;;;;;;;;;;;;;;23.16;39.46;99484.78;4474080;32;20175;-83
2022/10/12 11:25:37;;;;;;;18.48;9.80;;;;;;;23.29;38.91;99475.53;4473468;32;19990;-83